createdAt,value
2018-10-17T00:01:50.852Z,51.50
2018-10-17T00:04:20.002Z,51.50
2018-10-17T00:06:49.399Z,51.50
2018-10-17T00:09:18.853Z,51.50
2018-10-17T00:11:48.129Z,51.50
2018-10-17T00:14:17.415Z,51.50
2018-10-17T00:16:47.068Z,51.50
2018-10-17T00:19:17.489Z,51.50
2018-10-17T00:21:46.836Z,51.50
2018-10-17T00:24:16.136Z,51.50
2018-10-17T00:26:45.536Z,51.50
2018-10-17T00:29:15.019Z,51.50
2018-10-17T00:31:44.353Z,51.50
2018-10-17T00:34:13.625Z,51.40
2018-10-17T00:36:42.944Z,51.50
2018-10-17T00:39:12.655Z,51.40
2018-10-17T00:41:42.081Z,51.40
2018-10-17T00:44:11.433Z,51.50
2018-10-17T00:46:40.859Z,51.50
2018-10-17T00:49:10.188Z,51.40
2018-10-17T00:51:39.504Z,51.40
2018-10-17T00:54:08.667Z,51.40
2018-10-17T00:56:37.906Z,51.50
2018-10-17T00:59:09.524Z,51.40
2018-10-17T01:01:39.308Z,51.30
2018-10-17T01:04:09.007Z,51.40
2018-10-17T01:06:38.849Z,51.40
2018-10-17T01:09:10.427Z,51.40
2018-10-17T01:11:40.198Z,51.40
2018-10-17T01:14:10.017Z,51.40
2018-10-17T01:16:39.263Z,51.40
2018-10-17T01:19:08.726Z,51.30
2018-10-17T01:21:38.551Z,51.30
2018-10-17T01:24:07.947Z,51.30
2018-10-17T01:26:37.041Z,51.20
2018-10-17T01:29:06.489Z,51.30
2018-10-17T01:31:35.578Z,51.20
2018-10-17T01:34:05.993Z,51.20
2018-10-17T01:36:35.328Z,51.30
2018-10-17T01:39:06.867Z,51.20
2018-10-17T01:41:36.124Z,51.30
2018-10-17T01:44:05.655Z,51.20
2018-10-17T01:46:35.027Z,51.20
2018-10-17T01:49:04.260Z,51.20
2018-10-17T01:51:33.621Z,51.20
2018-10-17T01:54:02.902Z,51.20
2018-10-17T01:56:32.334Z,51.20
2018-10-17T01:59:01.685Z,51.20
2018-10-17T02:01:31.112Z,51.20
2018-10-17T02:04:00.486Z,51.20
2018-10-17T02:06:29.990Z,51.20
2018-10-17T02:08:59.389Z,51.20
2018-10-17T02:11:28.761Z,51.10
2018-10-17T02:13:58.252Z,51.20
2018-10-17T02:16:27.504Z,51.20
2018-10-17T02:18:56.897Z,51.20
2018-10-17T02:21:26.259Z,51.10
2018-10-17T02:23:55.904Z,51.10
2018-10-17T02:26:25.268Z,51.10
2018-10-17T02:28:54.578Z,51.10
2018-10-17T02:31:23.951Z,51.10
2018-10-17T02:33:53.304Z,51.10
2018-10-17T02:36:22.679Z,51.10
2018-10-17T02:38:51.817Z,51.10
2018-10-17T02:41:21.440Z,51.10
2018-10-17T02:43:50.748Z,51.10
2018-10-17T02:46:20.047Z,51.10
2018-10-17T02:48:49.391Z,51.10
2018-10-17T02:51:18.773Z,51.00
2018-10-17T02:53:48.140Z,51.00
2018-10-17T02:56:17.520Z,51.00
2018-10-17T02:58:46.776Z,51.00
2018-10-17T03:01:16.038Z,51.00
2018-10-17T03:03:45.372Z,51.00
2018-10-17T03:06:15.348Z,51.00
2018-10-17T03:08:44.768Z,51.00
2018-10-17T03:11:14.093Z,51.00
2018-10-17T03:13:43.423Z,51.00
2018-10-17T03:16:12.619Z,50.90
2018-10-17T03:18:42.009Z,51.60
2018-10-17T03:21:11.150Z,51.00
2018-10-17T03:23:40.485Z,51.60
2018-10-17T03:26:09.718Z,51.00
2018-10-17T03:28:38.845Z,50.90
2018-10-17T03:31:08.399Z,51.60
2018-10-17T03:33:37.622Z,51.00
2018-10-17T03:36:06.944Z,50.90
2018-10-17T03:38:36.267Z,50.80
2018-10-17T03:41:05.789Z,50.90
2018-10-17T03:43:35.187Z,50.90
2018-10-17T03:46:04.460Z,50.90
2018-10-17T03:48:33.769Z,50.90
2018-10-17T03:51:03.030Z,50.90
2018-10-17T03:53:32.265Z,50.80
2018-10-17T03:56:01.399Z,50.90
2018-10-17T03:58:30.715Z,50.90
2018-10-17T04:00:59.974Z,50.80
2018-10-17T04:03:29.163Z,50.80
2018-10-17T04:05:58.304Z,50.80
2018-10-17T04:08:27.479Z,50.80
2018-10-17T04:10:56.658Z,50.80
2018-10-17T04:13:25.861Z,50.80
2018-10-17T04:15:55.194Z,50.80
2018-10-17T04:18:24.269Z,50.70
2018-10-17T04:20:53.477Z,50.60
2018-10-17T04:23:22.763Z,50.40
2018-10-17T04:25:52.079Z,50.40
2018-10-17T04:28:21.278Z,50.30
2018-10-17T04:30:50.532Z,50.20
2018-10-17T04:33:19.856Z,50.10
2018-10-17T04:35:49.082Z,50.20
2018-10-17T04:38:18.988Z,50.20
2018-10-17T04:40:48.099Z,50.10
2018-10-17T04:43:17.475Z,50.10
2018-10-17T04:45:46.527Z,50.00
2018-10-17T04:48:15.845Z,50.00
2018-10-17T04:50:45.167Z,50.00
2018-10-17T04:53:14.448Z,50.00
2018-10-17T04:55:43.644Z,49.90
2018-10-17T04:58:12.782Z,49.90
2018-10-17T05:00:41.970Z,49.90
2018-10-17T05:03:11.043Z,49.80
2018-10-17T05:05:40.045Z,49.90
2018-10-17T05:08:09.091Z,49.80
2018-10-17T05:10:38.245Z,49.80
2018-10-17T05:13:07.635Z,49.80
2018-10-17T05:15:36.836Z,49.70
2018-10-17T05:18:06.304Z,49.70
2018-10-17T05:20:35.493Z,49.70
2018-10-17T05:23:05.111Z,49.70
2018-10-17T05:25:34.222Z,49.80
2018-10-17T05:28:03.509Z,49.70
2018-10-17T05:30:32.626Z,49.70
2018-10-17T05:33:02.087Z,49.70
2018-10-17T05:35:31.151Z,49.70
2018-10-17T05:38:00.472Z,49.80
2018-10-17T05:40:29.721Z,49.80
2018-10-17T05:42:58.862Z,49.80
2018-10-17T05:45:34.433Z,49.80
2018-10-17T05:48:03.659Z,49.90
2018-10-17T05:50:32.758Z,49.70
2018-10-17T05:53:02.011Z,49.70
2018-10-17T05:55:30.945Z,49.60
2018-10-17T05:58:00.177Z,49.80
2018-10-17T06:00:29.353Z,49.60
2018-10-17T06:02:58.527Z,49.80
2018-10-17T06:05:27.767Z,52.90
2018-10-17T06:07:57.134Z,56.50
2018-10-17T06:10:26.241Z,58.50
2018-10-17T06:12:55.523Z,60.10
2018-10-17T06:15:24.681Z,58.30
2018-10-17T06:17:53.854Z,55.00
2018-10-17T06:20:23.121Z,53.40
2018-10-17T06:22:52.426Z,52.80
2018-10-17T06:25:21.734Z,52.30
2018-10-17T06:27:50.932Z,53.00
2018-10-17T06:30:20.000Z,52.40
2018-10-17T06:32:49.171Z,52.20
2018-10-17T06:35:18.419Z,52.10
2018-10-17T06:37:47.515Z,52.60
2018-10-17T06:40:17.068Z,52.70
2018-10-17T06:42:46.057Z,52.10
2018-10-17T06:45:15.107Z,51.20
2018-10-17T06:47:44.362Z,50.60
2018-10-17T06:50:13.535Z,50.40
2018-10-17T06:52:42.685Z,50.40
2018-10-17T06:55:11.955Z,50.40
2018-10-17T06:57:40.988Z,50.30
2018-10-17T07:00:11.237Z,50.20
2018-10-17T07:02:40.464Z,50.20
2018-10-17T07:05:10.863Z,50.20
2018-10-17T07:07:41.443Z,50.10
2018-10-17T07:10:10.746Z,50.00
2018-10-17T07:12:39.760Z,49.90
2018-10-17T07:15:09.178Z,50.10
2018-10-17T07:17:38.457Z,50.00
2018-10-17T07:20:09.474Z,50.00
2018-10-17T07:22:39.700Z,50.00
2018-10-17T07:28:34.994Z,49.90
2018-10-17T07:31:06.107Z,49.50
2018-10-17T07:33:36.315Z,49.70
2018-10-17T07:38:54.025Z,49.50
2018-10-17T07:41:24.702Z,49.30
2018-10-17T07:43:55.474Z,49.40
2018-10-17T07:46:26.221Z,49.20
2018-10-17T07:48:56.588Z,49.30
2018-10-17T07:51:27.654Z,49.10
2018-10-17T07:53:57.581Z,49.50
2018-10-17T07:56:28.226Z,49.60
2018-10-17T07:58:58.044Z,49.90
2018-10-17T08:01:28.348Z,50.00
2018-10-17T08:03:57.988Z,50.50
2018-10-17T08:06:27.718Z,50.80
2018-10-17T08:08:57.825Z,51.00
2018-10-17T08:11:27.752Z,50.80
2018-10-17T08:13:57.502Z,50.60
2018-10-17T08:16:27.550Z,50.60
2018-10-17T08:18:57.999Z,51.30
2018-10-17T08:21:28.666Z,51.30
2018-10-17T08:23:59.364Z,51.60
2018-10-17T08:26:29.783Z,52.40
2018-10-17T08:28:59.942Z,52.50
2018-10-17T08:31:30.046Z,53.00
2018-10-17T08:34:00.661Z,52.90
2018-10-17T08:36:30.490Z,52.70
2018-10-17T08:38:59.891Z,52.60
2018-10-17T08:41:29.887Z,53.00
2018-10-17T08:44:01.160Z,53.10
2018-10-17T08:46:30.874Z,53.10
2018-10-17T08:49:00.698Z,52.60
2018-10-17T08:51:30.457Z,52.90
2018-10-17T08:53:59.864Z,52.60
2018-10-17T08:56:29.674Z,52.70
2018-10-17T08:58:59.350Z,53.00
2018-10-17T09:01:29.265Z,53.20
2018-10-17T09:03:58.969Z,53.20
2018-10-17T09:06:29.189Z,52.90
2018-10-17T09:08:58.645Z,52.80
2018-10-17T09:11:28.634Z,52.80
2018-10-17T09:13:58.600Z,52.70
2018-10-17T09:16:28.621Z,52.80
2018-10-17T09:18:58.637Z,53.00
2018-10-17T09:21:28.755Z,53.00
2018-10-17T09:23:58.912Z,52.80
2018-10-17T09:26:28.352Z,52.30
2018-10-17T09:28:57.895Z,52.50
2018-10-17T09:31:27.447Z,52.70
2018-10-17T09:33:56.833Z,52.60
2018-10-17T09:36:27.081Z,52.80
2018-10-17T09:38:59.648Z,52.60
2018-10-17T09:41:29.479Z,52.40
2018-10-17T09:43:59.275Z,51.90
2018-10-17T09:46:28.968Z,51.80
2018-10-17T09:48:58.539Z,51.60
2018-10-17T09:51:28.522Z,51.60
2018-10-17T09:53:58.159Z,51.60
2018-10-17T09:56:28.018Z,51.90
2018-10-17T09:58:57.900Z,51.60
2018-10-17T10:01:31.322Z,51.80
2018-10-17T10:04:00.616Z,51.70
2018-10-17T10:06:30.268Z,51.50
2018-10-17T10:09:00.779Z,51.40
2018-10-17T10:11:31.244Z,51.50
2018-10-17T10:14:01.013Z,51.40
2018-10-17T10:16:31.297Z,51.40
2018-10-17T10:19:00.702Z,51.20
2018-10-17T10:21:30.543Z,51.00
2018-10-17T10:24:00.891Z,50.90
2018-10-17T10:26:30.471Z,50.60
2018-10-17T10:29:01.618Z,51.10
2018-10-17T10:31:31.851Z,51.00
2018-10-17T10:34:01.891Z,50.40
2018-10-17T10:36:32.440Z,50.60
2018-10-17T10:39:02.807Z,50.70
2018-10-17T10:41:32.967Z,50.80
2018-10-17T10:44:02.737Z,50.30
2018-10-17T10:46:32.723Z,50.70
2018-10-17T10:49:02.908Z,50.60
2018-10-17T10:51:32.636Z,50.70
2018-10-17T10:54:01.817Z,50.60
2018-10-17T10:56:31.872Z,50.60
2018-10-17T10:59:01.583Z,50.20
2018-10-17T11:01:31.158Z,50.30
2018-10-17T11:04:00.796Z,50.30
2018-10-17T11:06:30.867Z,50.30
2018-10-17T11:09:00.671Z,50.30
2018-10-17T11:11:30.037Z,50.20
2018-10-17T11:13:59.686Z,50.30
2018-10-17T11:16:29.885Z,50.00
2018-10-17T11:18:59.561Z,50.00
2018-10-17T11:21:29.810Z,50.60
2018-10-17T11:23:59.672Z,50.00
2018-10-17T11:26:30.188Z,50.70
2018-10-17T11:29:00.012Z,49.70
2018-10-17T11:31:36.478Z,49.70
2018-10-17T11:34:06.814Z,49.50
2018-10-17T11:36:36.887Z,49.50
2018-10-17T11:39:08.747Z,49.40
2018-10-17T11:41:38.280Z,49.50
2018-10-17T11:44:07.788Z,49.50
2018-10-17T11:46:37.486Z,49.80
2018-10-17T11:49:07.341Z,49.40
2018-10-17T11:51:37.154Z,49.60
2018-10-17T11:54:07.490Z,49.50
2018-10-17T11:56:37.424Z,49.70
2018-10-17T11:59:07.060Z,49.60
2018-10-17T12:01:36.927Z,49.70
2018-10-17T12:04:06.943Z,49.90
2018-10-17T12:06:36.463Z,49.80
2018-10-17T12:09:09.176Z,50.00
2018-10-17T12:11:39.628Z,49.70
2018-10-17T12:14:09.837Z,50.20
2018-10-17T12:16:39.443Z,49.70
2018-10-17T12:19:09.804Z,49.70
2018-10-17T12:21:39.607Z,49.70
2018-10-17T12:24:09.644Z,49.50
2018-10-17T12:26:39.485Z,49.20
2018-10-17T12:29:09.570Z,49.60
2018-10-17T12:31:40.424Z,49.20
2018-10-17T12:34:10.030Z,49.30
2018-10-17T12:36:39.786Z,49.10
2018-10-17T12:39:13.078Z,49.60
2018-10-17T12:41:43.540Z,49.40
2018-10-17T12:44:13.022Z,49.30
2018-10-17T12:46:42.873Z,49.10
2018-10-17T12:49:13.048Z,49.20
2018-10-17T12:51:42.732Z,49.10
2018-10-17T12:54:12.312Z,49.10
2018-10-17T12:56:41.959Z,49.30
2018-10-17T12:59:11.905Z,48.90
2018-10-17T13:01:41.539Z,48.90
2018-10-17T13:04:11.548Z,48.90
2018-10-17T13:06:40.998Z,48.80
2018-10-17T13:09:12.060Z,49.10
2018-10-17T13:11:42.148Z,49.10
2018-10-17T13:14:12.291Z,48.60
2018-10-17T13:16:42.062Z,48.60
2018-10-17T13:19:12.190Z,48.70
2018-10-17T13:21:41.681Z,48.60
2018-10-17T13:24:11.158Z,48.80
2018-10-17T13:26:40.865Z,48.40
2018-10-17T13:29:10.772Z,48.70
2018-10-17T13:31:40.290Z,48.70
2018-10-17T13:34:09.868Z,48.80
2018-10-17T13:36:39.353Z,48.70
2018-10-17T13:39:10.847Z,48.70
2018-10-17T13:41:40.234Z,48.70
2018-10-17T13:44:10.660Z,48.60
2018-10-17T13:46:40.568Z,48.70
2018-10-17T13:49:10.437Z,48.30
2018-10-17T13:51:39.823Z,48.10
2018-10-17T13:54:09.252Z,48.20
2018-10-17T13:56:38.830Z,48.50
2018-10-17T13:59:09.147Z,48.40
2018-10-17T14:01:38.877Z,48.40
2018-10-17T14:04:08.514Z,48.50
2018-10-17T14:06:39.082Z,48.40
2018-10-17T14:09:10.152Z,48.80
2018-10-17T14:11:39.897Z,48.70
2018-10-17T14:14:09.410Z,48.40
2018-10-17T14:16:39.005Z,48.30
2018-10-17T14:19:08.680Z,48.40
2018-10-17T14:21:37.994Z,48.00
2018-10-17T14:24:07.903Z,48.10
2018-10-17T14:26:37.570Z,48.20
2018-10-17T14:29:08.028Z,48.30
2018-10-17T14:31:37.728Z,48.30
2018-10-17T14:34:07.563Z,48.30
2018-10-17T14:36:37.170Z,48.50
2018-10-17T14:39:09.597Z,48.80
2018-10-17T14:41:39.631Z,48.70
2018-10-17T14:44:09.634Z,48.40
2018-10-17T14:46:39.258Z,49.10
2018-10-17T14:49:09.231Z,48.50
2018-10-17T14:51:39.101Z,48.90
2018-10-17T14:54:08.925Z,48.50
2018-10-17T14:56:38.681Z,48.60
2018-10-17T14:59:08.359Z,48.70
2018-10-17T15:01:37.918Z,48.60
2018-10-17T15:04:08.107Z,48.30
2018-10-17T15:06:37.656Z,48.30
2018-10-17T15:09:09.647Z,48.30
2018-10-17T15:11:40.447Z,48.20
2018-10-17T15:14:09.987Z,48.50
2018-10-17T15:16:39.644Z,48.70
2018-10-17T15:19:09.752Z,48.70
2018-10-17T15:21:40.327Z,48.50
2018-10-17T15:24:10.321Z,48.70
2018-10-17T15:26:40.473Z,48.70
2018-10-17T15:29:10.987Z,49.50
2018-10-17T15:31:41.059Z,48.80
2018-10-17T15:34:11.186Z,49.20
2018-10-17T15:36:41.118Z,49.40
2018-10-17T15:39:12.205Z,49.30
2018-10-17T15:41:42.122Z,49.40
2018-10-17T15:44:12.754Z,49.70
2018-10-17T15:46:42.376Z,50.00
2018-10-17T15:49:12.081Z,49.90
2018-10-17T15:51:41.957Z,50.20
2018-10-17T15:54:11.820Z,50.00
2018-10-17T15:56:41.202Z,50.50
2018-10-17T15:59:11.477Z,50.40
2018-10-17T16:01:41.350Z,50.40
2018-10-17T16:04:11.619Z,50.60
2018-10-17T16:06:41.513Z,50.70
2018-10-17T16:09:12.451Z,50.90
2018-10-17T16:11:42.640Z,50.90
2018-10-17T16:14:12.999Z,51.10
2018-10-17T16:16:42.627Z,50.90
2018-10-17T16:19:12.911Z,50.90
2018-10-17T16:21:42.825Z,51.20
2018-10-17T16:24:14.041Z,51.70
2018-10-17T16:26:43.480Z,51.20
2018-10-17T16:29:13.702Z,51.20
2018-10-17T16:31:54.158Z,51.20
2018-10-17T16:34:23.844Z,51.10
2018-10-17T16:36:53.962Z,51.00
2018-10-17T16:39:23.487Z,50.80
2018-10-17T16:41:53.142Z,50.80
2018-10-17T16:44:22.860Z,50.60
2018-10-17T16:46:52.615Z,50.40
2018-10-17T16:49:22.546Z,50.30
2018-10-17T16:51:52.280Z,50.40
2018-10-17T16:54:22.227Z,50.20
2018-10-17T16:56:52.154Z,50.20
2018-10-17T16:59:21.955Z,50.20
2018-10-17T17:01:51.611Z,50.10
2018-10-17T17:04:21.558Z,50.10
2018-10-17T17:06:50.949Z,50.10
2018-10-17T17:09:20.883Z,50.10
2018-10-17T17:11:50.625Z,50.10
2018-10-17T17:14:20.287Z,50.20
2018-10-17T17:16:49.827Z,50.10
2018-10-17T17:19:19.739Z,50.10
2018-10-17T17:21:49.404Z,50.20
2018-10-17T17:24:18.995Z,50.20
2018-10-17T17:26:48.902Z,50.20
2018-10-17T17:29:19.275Z,50.20
2018-10-17T17:31:49.111Z,50.20
2018-10-17T17:34:18.759Z,50.10
2018-10-17T17:36:49.012Z,50.50
2018-10-17T17:39:19.491Z,50.50
2018-10-17T17:41:49.138Z,50.50
2018-10-17T17:44:19.168Z,50.50
2018-10-17T17:46:49.019Z,50.50
2018-10-17T17:49:19.038Z,50.50
2018-10-17T17:51:49.041Z,50.50
2018-10-17T17:54:18.885Z,50.50
2018-10-17T17:56:48.870Z,50.60
2018-10-17T17:59:18.534Z,50.60
2018-10-17T18:01:48.319Z,50.60
2018-10-17T18:04:17.939Z,50.60
2018-10-17T18:06:48.097Z,50.60
2018-10-17T18:09:17.897Z,50.60
2018-10-17T18:11:48.400Z,50.60
2018-10-17T18:14:17.768Z,50.60
2018-10-17T18:16:47.994Z,50.60
2018-10-17T18:19:17.551Z,50.60
2018-10-17T18:21:47.438Z,50.60
2018-10-17T18:24:16.824Z,50.60
2018-10-17T18:26:46.611Z,50.60
2018-10-17T18:29:16.136Z,50.60
2018-10-17T18:31:46.304Z,50.60
2018-10-17T18:34:16.547Z,50.60
2018-10-17T18:36:46.561Z,50.60
2018-10-17T18:39:16.066Z,50.60
2018-10-17T18:41:45.817Z,50.60
2018-10-17T18:44:15.446Z,50.60
2018-10-17T18:46:44.922Z,50.60
2018-10-17T18:49:14.690Z,50.60
2018-10-17T18:51:44.495Z,50.60
2018-10-17T18:54:14.475Z,50.50
2018-10-17T18:56:43.927Z,50.60
2018-10-17T18:59:13.600Z,50.80
2018-10-17T19:01:43.718Z,50.60
2018-10-17T19:04:13.340Z,50.60
2018-10-17T19:06:43.263Z,50.60
2018-10-17T19:09:14.094Z,50.60
2018-10-17T19:11:43.678Z,50.60
2018-10-17T19:14:13.257Z,50.60
2018-10-17T19:16:43.658Z,50.60
2018-10-17T19:19:13.457Z,50.60
2018-10-17T19:21:43.273Z,50.60
2018-10-17T19:24:13.177Z,50.60
2018-10-17T19:26:42.651Z,50.60
2018-10-17T19:29:12.773Z,50.60
2018-10-17T19:31:42.292Z,50.60
2018-10-17T19:34:11.914Z,50.60
2018-10-17T19:36:42.064Z,50.60
2018-10-17T19:39:14.152Z,50.60
2018-10-17T19:41:44.040Z,50.60
2018-10-17T19:44:13.433Z,50.60
2018-10-17T19:46:43.395Z,50.90
2018-10-17T19:49:12.975Z,50.60
2018-10-17T19:51:42.445Z,50.50
2018-10-17T19:54:12.273Z,50.50
2018-10-17T19:56:41.642Z,50.60
2018-10-17T19:59:11.227Z,50.50
2018-10-17T20:01:41.258Z,50.50
2018-10-17T20:04:11.240Z,50.60
2018-10-17T20:06:41.336Z,50.60
2018-10-17T20:09:12.034Z,50.50
2018-10-17T20:11:41.762Z,50.50
2018-10-17T20:14:11.431Z,50.60
2018-10-17T20:16:41.124Z,50.50
2018-10-17T20:19:10.699Z,50.50
2018-10-17T20:21:40.628Z,50.50
2018-10-17T20:24:10.267Z,50.60
2018-10-17T20:26:39.794Z,50.60
2018-10-17T20:29:09.424Z,50.50
2018-10-17T20:31:39.255Z,50.50
2018-10-17T20:34:08.937Z,50.60
2018-10-17T20:36:38.382Z,50.50
2018-10-17T20:39:14.306Z,50.60
2018-10-17T20:41:44.537Z,50.50
2018-10-17T20:44:14.443Z,50.50
2018-10-17T20:46:44.605Z,50.50
2018-10-17T20:49:14.677Z,50.50
2018-10-17T20:51:45.091Z,50.50
2018-10-17T20:54:14.955Z,50.50
2018-10-17T20:56:45.341Z,50.40
2018-10-17T20:59:14.951Z,50.50
2018-10-17T21:01:44.802Z,50.40
2018-10-17T21:04:14.366Z,50.50
2018-10-17T21:06:43.970Z,50.50
2018-10-17T21:09:14.776Z,50.50
2018-10-17T21:11:44.680Z,50.50
2018-10-17T21:14:14.424Z,50.50
2018-10-17T21:16:44.381Z,50.50
2018-10-17T21:19:14.040Z,50.40
2018-10-17T21:21:43.523Z,50.40
2018-10-17T21:24:13.660Z,50.50
2018-10-17T21:26:43.125Z,50.50
2018-10-17T21:29:14.268Z,50.40
2018-10-17T21:31:44.165Z,50.40
2018-10-17T21:34:13.868Z,50.40
2018-10-17T21:36:43.490Z,50.40
2018-10-17T21:39:14.120Z,50.40
2018-10-17T21:41:44.280Z,50.40
2018-10-17T21:44:14.169Z,50.40
2018-10-17T21:46:43.971Z,50.50
2018-10-17T21:49:13.234Z,50.40
2018-10-17T21:51:42.789Z,50.40
2018-10-17T21:54:12.895Z,50.40
2018-10-17T21:56:42.582Z,50.40
2018-10-17T21:59:12.418Z,50.40
2018-10-17T22:01:42.461Z,50.30
2018-10-17T22:04:11.892Z,50.40
2018-10-17T22:06:41.256Z,50.30
2018-10-17T22:09:11.791Z,50.40
2018-10-17T22:11:41.428Z,50.40
2018-10-17T22:14:11.215Z,50.40
2018-10-17T22:16:46.023Z,50.40
2018-10-17T22:19:15.644Z,50.40
2018-10-17T22:21:45.016Z,50.40
2018-10-17T22:24:14.660Z,50.40
2018-10-17T22:26:44.315Z,50.30
2018-10-17T22:29:14.363Z,50.40
2018-10-17T22:31:43.989Z,50.40
2018-10-17T22:34:13.664Z,50.40
2018-10-17T22:36:44.101Z,50.40
2018-10-17T22:39:15.634Z,50.40
2018-10-17T22:41:46.313Z,50.40
2018-10-17T22:44:16.173Z,50.40
2018-10-17T22:46:45.816Z,50.20
2018-10-17T22:49:15.940Z,50.30
2018-10-17T22:51:45.593Z,50.40
2018-10-17T22:54:15.220Z,50.20
2018-10-17T22:56:45.155Z,50.30
2018-10-17T22:59:14.681Z,50.30
2018-10-17T23:01:44.350Z,50.30
2018-10-17T23:04:14.176Z,50.30
2018-10-17T23:06:44.041Z,50.30
2018-10-17T23:09:14.632Z,50.40
2018-10-17T23:11:45.236Z,50.30
2018-10-17T23:14:14.605Z,50.30
2018-10-17T23:16:44.234Z,50.50
2018-10-17T23:19:13.764Z,50.30
2018-10-17T23:21:43.370Z,50.30
2018-10-17T23:24:12.726Z,50.40
2018-10-17T23:26:42.933Z,50.20
2018-10-17T23:29:12.805Z,50.30
2018-10-17T23:31:42.715Z,50.30
2018-10-17T23:34:12.207Z,50.20
2018-10-17T23:36:42.201Z,50.20
2018-10-17T23:39:11.479Z,50.20
2018-10-17T23:41:41.553Z,50.20
2018-10-17T23:44:11.558Z,50.20
2018-10-17T23:46:40.947Z,50.20
2018-10-17T23:49:10.866Z,50.20
2018-10-17T23:51:40.598Z,50.20
2018-10-17T23:54:10.641Z,50.20
2018-10-17T23:56:40.686Z,50.20
2018-10-17T23:59:10.320Z,50.20
